Hallton, Pennsylvania
Current Conditions -  °F | °C
As of 5:53 PM on Thursday 27 Nov 2014 (Local Time) from KDUJ Reporting Station
Light Snow Light Snow  
Wind Chill: 19°   Ceiling: 2100
Heat Index: 29°   Visibility: 2.5mi
Dew Point: 25°   Wind: 13mph
Humidity: 85%   Direction: 300°WNW
Pressure: 30.05"   Gusts: 24mph
Location:  41.3171°N, 79.0119°W
Report Text: KDUJ 272253Z AUTO 30011G21KT 2 1/2SM -SN BR SCT013 OVC021 M02/M04 A3005 RMK AO2 SNE09B31 SLP194 P0000 T10171039
Loading
Personal Weather Stations






























Interactive Weather Map New forecast layout! Learn more

10-Day Weather Forecast

Advertisements
Track Severe Weather on mobile